Time;durP1;ratioP1;P1;durP2;ratioP2;P2;SDS_P1;SDS_P2;PMS_P1;PMS_P2;Temp;Humidity;BMP_temperature;BMP_pressure;BME280_temperature;BME280_humidity;BME280_pressure;Samples;Min_cycle;Max_cycle;Signal;HPM_P1;HPM_P2
2022/10/24 00:01:11;;;;;;;25.00;12.43;;;;;;;10.17;84.15;101053.16;126439;1086;104197;-75
2022/10/24 00:03:39;;;;;;;24.17;12.70;;;;;;;10.17;84.06;101049.65;127605;1085;104155;-76
2022/10/24 00:06:09;;;;;;;24.43;12.80;;;;;;;10.15;84.39;101053.94;126414;1086;103273;-75
2022/10/24 00:08:39;;;;;;;25.20;12.57;;;;;;;10.13;84.13;101051.25;126052;1089;104350;-75
2022/10/24 00:11:10;;;;;;;26.87;13.03;;;;;;;10.13;84.16;101039.83;126431;1086;104143;-75
2022/10/24 00:13:38;;;;;;;25.17;13.47;;;;;;;10.10;84.34;101035.38;126422;1086;104203;-76
2022/10/24 00:16:08;;;;;;;24.60;12.97;;;;;;;10.08;83.89;101029.13;126395;1086;104194;-76
2022/10/24 00:18:37;;;;;;;27.40;13.77;;;;;;;10.08;83.84;101031.75;126085;1089;102924;-75
2022/10/24 00:21:07;;;;;;;26.57;14.07;;;;;;;10.07;84.04;101036.11;126407;1086;101874;-76
2022/10/24 00:23:35;;;;;;;25.60;13.20;;;;;;;10.08;84.46;101035.30;126345;1086;102212;-75
2022/10/24 00:26:05;;;;;;;24.83;13.30;;;;;;;10.07;84.54;101038.73;126388;1086;104260;-75
2022/10/24 00:28:35;;;;;;;24.67;13.23;;;;;;;10.04;83.75;101028.11;126371;1086;104194;-75
2022/10/24 00:31:11;;;;;;;22.77;12.67;;;;;;;10.03;84.01;101031.54;126439;1086;104651;-76
2022/10/24 00:33:40;;;;;;;23.83;12.57;;;;;;;10.02;84.43;101026.23;126511;1086;104159;-75
2022/10/24 00:36:12;;;;;;;25.63;12.87;;;;;;;10.01;83.86;101030.59;126452;1086;104290;-75
2022/10/24 00:38:40;;;;;;;23.20;12.60;;;;;;;9.98;84.05;101025.20;126395;1086;102273;-75
2022/10/24 00:41:13;;;;;;;25.33;13.20;;;;;;;9.96;84.37;101026.86;126396;1086;102799;-76
2022/10/24 00:43:41;;;;;;;25.33;12.97;;;;;;;9.95;83.97;101035.54;126533;1086;104280;-75
2022/10/24 00:46:10;;;;;;;24.77;12.30;;;;;;;9.93;83.89;101031.96;126413;1086;102933;-76
2022/10/24 00:48:43;;;;;;;25.20;13.37;;;;;;;9.90;83.86;101027.46;126332;1086;102293;-75
2022/10/24 00:51:20;;;;;;;23.93;13.33;;;;;;;9.87;83.79;101029.05;126411;1086;104203;-76
2022/10/24 00:53:51;;;;;;;24.63;13.80;;;;;;;9.84;83.72;101034.15;126445;1086;104370;-75
2022/10/24 00:56:22;;;;;;;25.60;12.90;;;;;;;9.79;83.61;101041.80;126415;1086;104235;-75
2022/10/24 00:58:53;;;;;;;24.63;13.50;;;;;;;9.78;84.23;101037.37;126027;1089;102301;-76
2022/10/24 01:01:22;;;;;;;28.37;13.70;;;;;;;9.79;84.48;101043.53;126456;1086;104313;-75
2022/10/24 01:03:50;;;;;;;27.80;13.57;;;;;;;9.79;83.95;101043.53;126461;1086;104640;-76
2022/10/24 01:06:38;;;;;;;26.80;13.80;;;;;;;9.78;84.56;101042.61;126401;1086;104142;-76
2022/10/24 01:09:23;;;;;;;24.73;13.53;;;;;;;9.77;83.87;101038.21;126424;1086;104672;-76
2022/10/24 01:12:02;;;;;;;26.00;14.33;;;;;;;9.74;83.97;101035.45;126399;1086;102796;-75
2022/10/24 01:14:44;;;;;;;24.40;13.37;;;;;;;9.74;84.45;101034.52;125994;1089;101852;-75
2022/10/24 01:17:19;;;;;;;25.73;13.43;;;;;;;9.70;84.47;101028.25;126073;1086;104363;-76
2022/10/24 01:20:23;;;;;;;25.40;13.77;;;;;;;9.70;84.56;101030.88;126365;1086;104225;-76
2022/10/24 01:23:06;;;;;;;24.12;13.08;;;;;;;9.66;84.57;101029.84;126415;1086;102790;-75
2022/10/24 01:25:46;;;;;;;26.80;13.87;;;;;;;9.65;84.32;101025.41;126455;1086;101919;-76
2022/10/24 01:28:17;;;;;;;25.43;13.03;;;;;;;9.65;84.35;101025.41;126417;1086;104156;-76
2022/10/24 01:30:49;;;;;;;24.03;13.03;;;;;;;9.63;84.57;101032.31;126060;1088;104225;-76
2022/10/24 01:33:25;;;;;;;25.13;13.30;;;;;;;9.59;84.41;101032.98;126408;1086;104290;-76
2022/10/24 01:35:59;;;;;;;25.43;13.27;;;;;;;9.55;84.00;101033.64;126381;1086;102135;-76
2022/10/24 01:38:31;;;;;;;;;;;;;;;9.54;83.97;101026.63;126438;1086;104162;-75
2022/10/24 01:41:04;;;;;;;24.73;12.53;;;;;;;9.50;84.21;101022.94;126315;1086;103250;-76
2022/10/24 01:43:37;;;;;;;23.77;13.27;;;;;;;9.50;84.48;101014.19;126355;1086;104162;-76
2022/10/24 01:46:10;;;;;;;23.57;12.33;;;;;;;9.43;83.98;101015.63;126388;1086;104175;-76
2022/10/24 01:48:43;;;;;;;23.67;12.60;;;;;;;9.44;83.79;101022.67;126451;1086;104162;-76
2022/10/24 01:51:14;;;;;;;26.57;13.23;;;;;;;9.44;84.58;101029.61;126001;1089;104249;-76
2022/10/24 01:53:44;;;;;;;24.85;12.90;;;;;;;9.43;84.06;101036.58;126334;1086;102208;-75
2022/10/24 01:56:13;;;;;;;25.10;13.30;;;;;;;9.44;84.02;101032.23;126420;1086;104560;-75
2022/10/24 01:58:41;;;;;;;25.87;13.43;;;;;;;9.44;84.59;101029.61;126360;1086;104684;-75
2022/10/24 02:01:15;;;;;;;24.33;13.13;;;;;;;9.44;84.61;101030.53;126439;1086;104209;-75
2022/10/24 02:03:47;;;;;;;26.30;13.75;;;;;;;9.42;84.53;101033.89;126444;1086;102863;-76
2022/10/24 02:06:18;;;;;;;25.07;12.43;;;;;;;9.41;84.22;101037.31;125916;1086;104319;-74
2022/10/24 02:08:51;;;;;;;25.10;13.33;;;;;;;9.44;84.17;101040.09;126423;1086;104306;-75
2022/10/24 02:11:20;;;;;;;23.70;12.90;;;;;;;9.43;84.07;101046.17;126318;1086;104252;-75
2022/10/24 02:13:55;;;;;;;26.63;13.37;;;;;;;9.42;84.02;101047.88;126449;1086;104303;-75
2022/10/24 02:16:24;;;;;;;26.20;13.37;;;;;;;9.41;84.50;101047.80;126032;1089;102838;-74
2022/10/24 02:18:55;;;;;;;23.67;12.77;;;;;;;9.37;84.54;101053.73;126408;1086;104337;-75
2022/10/24 02:21:31;;;;;;;27.37;13.60;;;;;;;9.33;84.64;101057.89;126373;1086;104366;-76
2022/10/24 02:24:04;;;;;;;27.80;14.57;;;;;;;9.32;84.60;101062.25;126425;1086;104166;-75
2022/10/24 02:26:39;;;;;;;28.37;14.47;;;;;;;9.30;84.57;101062.98;126434;1086;104232;-76
2022/10/24 02:29:11;;;;;;;26.37;13.10;;;;;;;9.24;84.35;101068.83;126444;1086;102995;-76
2022/10/24 02:31:43;;;;;;;24.57;12.83;;;;;;;9.18;84.44;101073.76;126307;1086;104332;-76
2022/10/24 02:34:13;;;;;;;;;;;;;;;9.14;83.68;101072.69;126411;1086;104665;-75
2022/10/24 02:36:44;;;;;;;23.93;12.80;;;;;;;9.09;83.78;101070.67;126464;1086;104244;-76
2022/10/24 02:39:14;;;;;;;25.97;13.83;;;;;;;9.07;84.46;101072.29;126397;1086;104270;-76
2022/10/24 02:41:44;;;;;;;24.83;13.10;;;;;;;9.04;84.14;101072.13;126369;1086;102302;-76
2022/10/24 02:44:15;;;;;;;25.93;13.10;;;;;;;9.01;84.14;101083.38;126428;1085;103745;-75
2022/10/24 02:46:46;;;;;;;25.03;13.13;;;;;;;8.96;84.20;101083.13;126451;1086;104232;-75
2022/10/24 02:49:14;;;;;;;23.67;12.80;;;;;;;8.92;83.63;101083.78;126437;1086;104249;-75
2022/10/24 02:51:46;;;;;;;24.17;13.23;;;;;;;8.91;84.43;101078.47;126368;1086;104188;-76
2022/10/24 02:54:14;;;;;;;25.87;13.00;;;;;;;8.89;84.42;101078.39;126028;1090;103493;-76
2022/10/24 02:56:46;;;;;;;26.53;13.87;;;;;;;8.88;83.89;101089.70;126397;1086;104662;-77
2022/10/24 02:59:15;;;;;;;25.70;13.50;;;;;;;8.83;84.41;101080.69;126517;1086;102399;-76
2022/10/24 03:01:43;;;;;;;24.97;13.13;;;;;;;8.86;83.65;101096.55;126284;1086;101817;-75
2022/10/24 03:04:11;;;;;;;26.20;13.50;;;;;;;8.84;84.35;101092.97;126477;1085;104193;-75
2022/10/24 03:06:40;;;;;;;27.37;13.67;;;;;;;8.83;84.24;101085.92;126457;1086;104201;-75
2022/10/24 03:09:11;;;;;;;23.13;12.83;;;;;;;8.84;84.53;101086.84;126457;1086;104159;-76
2022/10/24 03:11:40;;;;;;;23.30;12.80;;;;;;;8.82;83.78;101092.00;126436;1086;102938;-76
2022/10/24 03:14:08;;;;;;;25.97;12.20;;;;;;;8.80;84.53;101093.61;126423;1086;104165;-75
2022/10/24 03:16:37;;;;;;;24.10;12.43;;;;;;;8.79;83.77;101095.34;126475;1086;104200;-75
2022/10/24 03:19:05;;;;;;;24.90;12.97;;;;;;;8.77;83.81;101093.45;126405;1086;104410;-75
2022/10/24 03:21:34;;;;;;;22.17;11.90;;;;;;;8.76;84.16;101091.67;126346;1086;104165;-75
2022/10/24 03:24:02;;;;;;;21.10;11.67;;;;;;;8.75;84.32;101085.52;126408;1086;102014;-76
2022/10/24 03:26:31;;;;;;;22.93;11.53;;;;;;;8.72;83.97;101089.70;126035;1087;104201;-75
2022/10/24 03:28:59;;;;;;;20.67;10.50;;;;;;;8.71;83.83;101082.66;126386;1086;104193;-75
2022/10/24 03:31:29;;;;;;;20.40;11.27;;;;;;;8.70;84.10;101084.39;126445;1086;104300;-75
2022/10/24 03:33:58;;;;;;;20.40;10.60;;;;;;;8.67;84.08;101072.88;126412;1086;104090;-75
2022/10/24 03:36:26;;;;;;;19.97;10.63;;;;;;;8.63;84.33;101079.64;126431;1086;102828;-75
2022/10/24 03:38:54;;;;;;;20.07;10.90;;;;;;;8.60;83.86;101077.78;126345;1085;104415;-76
2022/10/24 03:41:23;;;;;;;20.70;11.63;;;;;;;8.60;84.10;101084.70;126402;1085;104273;-76
2022/10/24 03:43:51;;;;;;;20.17;10.40;;;;;;;8.58;83.99;101089.86;126448;1086;103032;-75
2022/10/24 03:46:20;;;;;;;33.97;17.63;;;;;;;8.55;84.05;101091.42;126397;1086;104220;-75
2022/10/24 03:48:48;;;;;;;63.03;33.73;;;;;;;8.53;83.74;101090.45;126445;1085;104293;-76
2022/10/24 03:51:16;;;;;;;77.13;39.43;;;;;;;8.52;83.75;101091.26;126387;1086;104300;-76
2022/10/24 03:53:45;;;;;;;75.97;40.40;;;;;;;8.51;84.41;101092.98;126335;1086;102210;-75
2022/10/24 03:56:16;;;;;;;67.73;33.23;;;;;;;8.52;83.64;101091.26;126386;1085;104216;-75
2022/10/24 03:58:44;;;;;;;49.17;26.73;;;;;;;8.47;83.98;101085.78;126346;1085;104165;-76
2022/10/24 04:01:16;;;;;;;39.93;22.13;;;;;;;8.44;83.66;101088.23;126392;1086;104242;-76
2022/10/24 04:03:45;;;;;;;31.53;17.77;;;;;;;8.42;83.68;101079.38;126330;1086;104293;-74
2022/10/24 04:06:13;;;;;;;33.40;18.03;;;;;;;8.42;83.69;101084.61;126339;1086;104222;-74
2022/10/24 04:08:42;;;;;;;30.67;16.43;;;;;;;8.38;84.30;101075.72;126294;1086;104191;-74
2022/10/24 04:11:11;;;;;;;31.87;15.93;;;;;;;8.30;84.02;101073.48;126291;1086;104369;-73
2022/10/24 04:13:39;;;;;;;29.23;16.00;;;;;;;8.25;83.80;101070.63;126305;1086;102834;-74
2022/10/24 04:16:08;;;;;;;29.80;16.67;;;;;;;8.18;83.53;101073.71;126259;1086;104356;-74
2022/10/24 04:18:37;;;;;;;29.63;15.87;;;;;;;8.10;83.19;101070.67;126315;1086;104178;-74
2022/10/24 04:21:06;;;;;;;32.50;16.40;;;;;;;8.08;84.01;101064.48;126341;1086;101888;-74
2022/10/24 04:23:39;;;;;;;33.50;17.65;;;;;;;8.06;83.54;101061.78;126215;1086;101878;-74
2022/10/24 04:26:11;;;;;;;32.60;17.17;;;;;;;8.03;83.56;101065.95;126320;1086;104200;-74
2022/10/24 04:28:40;;;;;;;42.67;19.83;;;;;;;7.99;83.26;101063.97;126302;1086;104172;-74
2022/10/24 04:31:08;;;;;;;37.57;18.53;;;;;;;7.99;84.00;101070.09;126331;1086;104200;-74
2022/10/24 04:33:36;;;;;;;54.27;24.47;;;;;;;8.00;83.71;101058.83;126272;1086;104364;-74
2022/10/24 04:36:06;;;;;;;50.57;24.20;;;;;;;7.99;84.11;101062.25;126278;1086;104320;-74
2022/10/24 04:38:35;;;;;;;43.37;21.47;;;;;;;7.98;83.59;101051.70;126257;1085;104241;-74
2022/10/24 04:41:03;;;;;;;40.97;20.73;;;;;;;7.99;83.67;101064.86;126291;1086;104229;-74
2022/10/24 04:43:32;;;;;;;37.57;18.03;;;;;;;7.98;83.87;101062.16;126262;1086;104296;-74
2022/10/24 04:46:01;;;;;;;50.43;19.33;;;;;;;7.94;83.98;101055.88;126312;1086;104235;-74
2022/10/24 04:48:29;;;;;;;45.20;18.87;;;;;;;7.92;84.00;101067.97;126223;1086;104338;-73
2022/10/24 04:50:58;;;;;;;33.17;17.60;;;;;;;7.91;83.69;101058.31;126352;1086;104162;-74
2022/10/24 04:53:26;;;;;;;36.27;17.70;;;;;;;7.92;83.60;101066.24;126285;1086;102205;-75
2022/10/24 04:55:55;;;;;;;40.93;18.10;;;;;;;7.94;83.62;101065.44;126322;1086;104242;-73
2022/10/24 04:58:23;;;;;;;45.53;18.03;;;;;;;7.95;83.87;101064.60;126325;1086;104241;-74
2022/10/24 05:00:52;;;;;;;35.87;17.47;;;;;;;7.95;83.74;101072.45;126253;1086;104481;-74
2022/10/24 05:03:22;;;;;;;31.40;16.83;;;;;;;7.98;83.36;101067.38;125931;1089;102897;-74
2022/10/24 05:05:51;;;;;;;34.63;17.20;;;;;;;8.00;83.88;101079.73;126265;1086;104235;-74
2022/10/24 05:08:21;;;;;;;30.87;16.33;;;;;;;8.04;84.12;101078.18;126280;1085;104231;-74
2022/10/24 05:10:49;;;;;;;33.70;16.90;;;;;;;8.06;83.42;101077.46;125961;1089;102434;-73
2022/10/24 05:13:18;;;;;;;36.63;16.43;;;;;;;8.09;83.66;101072.41;126315;1086;104155;-74
2022/10/24 05:15:46;;;;;;;30.77;16.83;;;;;;;8.13;83.63;101077.80;125922;1089;104184;-74
2022/10/24 05:18:15;;;;;;;32.93;16.10;;;;;;;8.13;83.35;101070.84;126003;1089;102352;-74
2022/10/24 05:20:43;;;;;;;30.20;15.23;;;;;;;8.13;83.57;101065.61;126334;1086;103337;-73
2022/10/24 05:23:12;;;;;;;29.90;14.87;;;;;;;8.12;83.73;101069.07;126261;1086;104257;-73
2022/10/24 05:25:40;;;;;;;27.13;14.63;;;;;;;8.13;83.37;101069.95;126246;1086;104181;-72
2022/10/24 05:28:08;;;;;;;29.10;14.93;;;;;;;8.12;83.80;101068.15;126249;1086;104260;-73
2022/10/24 05:30:37;;;;;;;32.20;16.87;;;;;;;8.11;83.24;101072.48;126262;1086;104188;-73
2022/10/24 05:33:05;;;;;;;31.30;15.45;;;;;;;8.14;83.66;101063.92;126355;1086;102320;-73
2022/10/24 05:35:34;;;;;;;31.57;16.50;;;;;;;8.16;83.30;101071.02;126222;1086;104811;-74
2022/10/24 05:38:04;;;;;;;37.00;17.53;;;;;;;8.21;83.61;101072.19;125909;1090;104223;-75
2022/10/24 05:40:34;;;;;;;34.07;18.33;;;;;;;8.26;83.99;101075.94;126272;1086;104263;-75
2022/10/24 05:43:03;;;;;;;35.57;17.70;;;;;;;8.32;83.65;101088.45;125940;1090;104359;-75
2022/10/24 05:45:31;;;;;;;37.77;19.73;;;;;;;8.36;83.37;101082.55;126232;1086;104162;-74
2022/10/24 05:48:03;;;;;;;35.33;20.10;;;;;;;8.46;83.76;101094.44;125913;1089;104255;-74
2022/10/24 05:50:36;;;;;;;39.00;19.03;;;;;;;8.54;84.27;101090.53;126253;1085;104082;-74
2022/10/24 05:53:06;;;;;;;30.93;17.27;;;;;;;8.61;83.51;101096.98;125906;1089;103035;-74
2022/10/24 05:55:35;;;;;;;32.13;17.47;;;;;;;8.66;83.77;101097.23;126260;1086;103604;-74
2022/10/24 05:58:04;;;;;;;35.70;17.87;;;;;;;8.68;83.50;101101.73;125922;1089;104225;-75
2022/10/24 06:00:34;;;;;;;36.43;17.80;;;;;;;8.71;83.29;101106.20;125897;1089;104194;-73
2022/10/24 06:03:05;;;;;;;37.83;18.90;;;;;;;8.72;83.26;101108.02;125873;1089;102406;-73
2022/10/24 06:05:35;;;;;;;38.93;18.80;;;;;;;8.72;83.15;101108.02;126384;1086;102408;-74
2022/10/24 06:08:04;;;;;;;39.93;18.47;;;;;;;8.73;83.46;101109.83;125904;1089;104303;-76
2022/10/24 06:10:39;;;;;;;35.73;18.37;;;;;;;8.76;83.77;101110.88;125944;1089;102440;-76
2022/10/24 06:13:09;;;;;;;37.43;18.20;;;;;;;8.82;83.16;101112.94;125954;1089;105007;-76
2022/10/24 06:15:40;;;;;;;37.00;17.20;;;;;;;8.85;83.80;101112.17;125951;1089;104226;-75
2022/10/24 06:18:09;;;;;;;33.43;18.30;;;;;;;8.90;83.57;101114.22;126714;1089;104331;-76
2022/10/24 06:20:42;;;;;;;31.80;17.30;;;;;;;8.98;83.94;101115.51;127499;1085;104172;-76
2022/10/24 06:23:14;;;;;;;32.00;16.73;;;;;;;9.06;83.54;101122.88;126265;1086;104197;-76
2022/10/24 06:25:45;;;;;;;33.83;17.80;;;;;;;9.11;83.26;101113.53;126302;1086;104351;-76
2022/10/24 06:31:38;;;;;;;34.48;17.70;;;;;;;9.20;83.32;101114.00;126341;1086;102770;-77
2022/10/24 06:34:13;;;;;;;33.27;17.57;;;;;;;9.33;83.94;101112.89;126073;1090;102416;-75
2022/10/24 06:36:47;;;;;;;38.60;17.97;;;;;;;9.41;83.34;101105.42;126290;1086;104193;-75
2022/10/24 06:39:16;;;;;;;38.10;19.37;;;;;;;9.49;83.46;101109.31;126024;1089;102969;-76
2022/10/24 06:41:46;;;;;;;37.40;19.77;;;;;;;9.58;83.69;101111.50;126321;1086;102936;-76
2022/10/24 06:44:17;;;;;;;36.00;19.77;;;;;;;9.69;83.81;101103.36;126326;1086;102792;-74
2022/10/24 06:46:47;;;;;;;38.73;20.10;;;;;;;9.78;83.48;101109.86;126019;1089;104250;-75
2022/10/24 06:49:16;;;;;;;35.17;19.23;;;;;;;9.88;83.37;101113.00;126376;1086;104278;-75
2022/10/24 06:51:51;;;;;;;38.57;20.13;;;;;;;10.01;83.62;101110.98;125989;1090;104344;-75
2022/10/24 06:54:22;;;;;;;38.60;19.63;;;;;;;10.10;83.65;101118.36;126069;1087;104149;-75
2022/10/24 06:56:55;;;;;;;34.80;18.87;;;;;;;10.07;83.54;101104.29;126038;1086;102417;-75
2022/10/24 06:59:31;;;;;;;37.03;20.72;;;;;;;10.15;83.65;101107.27;126312;1086;104226;-76
2022/10/24 07:02:16;;;;;;;38.30;19.93;;;;;;;10.19;83.53;101111.84;126350;1086;102630;-75
2022/10/24 07:05:00;;;;;;;38.17;20.60;;;;;;;10.24;83.72;101107.70;126032;1090;104162;-76
2022/10/24 07:07:36;;;;;;;36.13;18.77;;;;;;;10.30;83.19;101108.81;126367;1086;104350;-76
2022/10/24 07:10:17;;;;;;;34.67;19.93;;;;;;;10.40;83.45;101111.97;127283;1086;104234;-75
2022/10/24 07:13:05;;;;;;;33.40;19.90;;;;;;;10.53;83.28;101109.91;126378;1086;104162;-76
2022/10/24 07:15:44;;;;;;;37.80;19.43;;;;;;;10.65;83.54;101099.08;127015;1086;102581;-77
2022/10/24 07:18:15;;;;;;;33.57;18.63;;;;;;;10.79;83.62;101100.59;127435;1087;103051;-76
2022/10/24 07:21:02;;;;;;;36.90;19.17;;;;;;;10.94;83.70;101105.63;126386;1086;102423;-75
2022/10/24 07:23:33;;;;;;;38.60;21.53;;;;;;;11.08;83.46;101095.69;126499;1086;102244;-74
2022/10/24 07:26:05;;;;;;;39.63;20.00;;;;;;;11.18;83.39;101090.02;126254;1086;104229;-75
2022/10/24 07:28:39;;;;;;;36.23;20.87;;;;;;;11.28;83.32;101086.95;126303;1086;104162;-75
2022/10/24 07:31:21;;;;;;;38.03;21.70;;;;;;;11.39;83.48;101083.86;125964;1089;104249;-76
2022/10/24 07:33:54;;;;;;;36.53;20.73;;;;;;;11.51;83.25;101076.48;126369;1086;104398;-75
2022/10/24 07:36:30;;;;;;;37.67;21.40;;;;;;;11.64;83.32;101075.25;127019;1086;104222;-76
2022/10/24 07:39:11;;;;;;;40.63;20.60;;;;;;;11.80;83.33;101077.67;126761;1089;102371;-76
2022/10/24 07:41:45;;;;;;;39.00;21.73;;;;;;;11.90;83.12;101072.78;126768;1089;102978;-77
2022/10/24 07:44:15;;;;;;;37.47;21.83;;;;;;;11.96;82.52;101071.31;126995;1086;104181;-76
2022/10/24 07:46:48;;;;;;;35.93;22.07;;;;;;;12.02;82.36;101076.81;126055;1089;104236;-75
2022/10/24 07:49:19;;;;;;;38.60;22.50;;;;;;;12.09;82.34;101067.45;126349;1086;102792;-75
2022/10/24 07:51:49;;;;;;;40.97;21.93;;;;;;;12.13;81.90;101063.19;126026;1089;104760;-75
2022/10/24 07:54:19;;;;;;;41.03;23.57;;;;;;;12.23;81.88;101066.23;125992;1089;104258;-75
2022/10/24 07:56:49;;;;;;;42.15;22.45;;;;;;;12.30;81.89;101062.09;126263;1086;104223;-75
2022/10/24 07:59:25;;;;;;;39.77;23.57;;;;;;;12.39;81.75;101062.44;126298;1086;104229;-76
2022/10/24 08:02:01;;;;;;;45.13;24.73;;;;;;;12.47;81.93;101062.72;126785;1087;104069;-76
2022/10/24 08:04:41;;;;;;;39.87;23.70;;;;;;;12.56;81.53;101065.69;126973;1086;104184;-77
2022/10/24 08:07:12;;;;;;;45.90;24.30;;;;;;;12.67;82.14;101065.16;126751;1089;102433;-77
2022/10/24 08:09:45;;;;;;;45.73;24.50;;;;;;;12.80;81.94;101064.78;125938;1089;104839;-76
2022/10/24 08:12:14;;;;;;;45.65;25.15;;;;;;;12.93;81.59;101056.48;126259;1086;104081;-76
2022/10/24 08:14:44;;;;;;;48.00;25.13;;;;;;;13.08;81.72;101058.73;126317;1085;104344;-77
2022/10/24 08:17:20;;;;;;;50.70;27.50;;;;;;;13.25;81.52;101063.70;126324;1086;102161;-77
2022/10/24 08:19:49;;;;;;;43.97;26.03;;;;;;;13.41;82.06;101050.20;126311;1087;104165;-77
2022/10/24 08:22:20;;;;;;;46.37;26.50;;;;;;;13.55;81.92;101063.83;126328;1086;104233;-76
2022/10/24 08:24:49;;;;;;;33.23;17.73;;;;;;;13.69;80.87;101063.39;125957;1089;102350;-76
2022/10/24 08:27:22;;;;;;;31.00;16.97;;;;;;;13.90;80.94;101071.08;126252;1086;102997;-76
2022/10/24 08:29:53;;;;;;;22.67;13.30;;;;;;;14.10;81.15;101066.41;126345;1086;104162;-76
2022/10/24 08:32:24;;;;;;;26.80;13.40;;;;;;;14.29;81.01;101071.41;126057;1089;102232;-76
2022/10/24 08:34:57;;;;;;;22.90;12.43;;;;;;;14.46;80.26;101070.98;126072;1089;104321;-76
2022/10/24 08:37:29;;;;;;;20.20;10.60;;;;;;;14.62;79.96;101070.63;125992;1089;102167;-76
2022/10/24 08:40:07;;;;;;;20.67;10.53;;;;;;;14.79;80.18;101060.53;126304;1086;104596;-76
2022/10/24 08:42:37;;;;;;;20.45;10.05;;;;;;;14.91;78.58;101058.22;126362;1086;104276;-75
2022/10/24 08:45:16;;;;;;;20.67;9.70;;;;;;;15.06;79.74;101056.83;126125;1089;101969;-75
2022/10/24 08:47:58;;;;;;;20.70;11.13;;;;;;;15.14;79.68;101062.32;126074;1086;104205;-75
2022/10/24 08:50:32;;;;;;;22.27;10.30;;;;;;;15.23;79.84;101052.87;126389;1086;104142;-74
2022/10/24 08:53:05;;;;;;;22.00;8.53;;;;;;;15.34;79.14;101050.50;126028;1089;104183;-74
2022/10/24 08:55:40;;;;;;;15.60;7.63;;;;;;;15.48;79.84;101050.84;126077;1086;103385;-76
2022/10/24 08:58:15;;;;;;;13.57;6.63;;;;;;;15.63;79.19;101055.62;126070;1086;104177;-75
2022/10/24 09:00:48;;;;;;;12.47;5.97;;;;;;;15.74;78.42;101037.36;126391;1086;104366;-74
2022/10/24 09:03:20;;;;;;;;;;;;;;;15.90;77.72;101046.56;126406;1086;104232;-74
2022/10/24 09:05:55;;;;;;;12.23;6.17;;;;;;;16.07;77.80;101039.88;126285;1086;104187;-75
2022/10/24 09:08:38;;;;;;;13.83;6.23;;;;;;;16.21;76.87;101040.18;126311;1086;104214;-74
2022/10/24 09:11:17;;;;;;;11.73;5.50;;;;;;;16.37;77.43;101041.39;127370;1086;104831;-74
2022/10/24 09:13:49;;;;;;;9.27;5.17;;;;;;;16.51;76.62;101024.01;127010;1086;103006;-73
2022/10/24 09:16:28;;;;;;;11.13;5.43;;;;;;;16.65;76.45;101023.40;126682;1086;104338;-74
2022/10/24 09:19:01;;;;;;;10.27;5.13;;;;;;;16.77;76.05;101023.63;126394;1090;104152;-74
2022/10/24 09:21:31;;;;;;;10.50;5.10;;;;;;;16.92;75.66;101022.16;126339;1086;104165;-74
2022/10/24 09:24:02;;;;;;;10.63;4.87;;;;;;;17.04;74.54;101017.07;126002;1086;104232;-74
2022/10/24 09:26:32;;;;;;;12.23;5.10;;;;;;;17.16;74.93;101025.23;126409;1086;104264;-75
2022/10/24 09:29:05;;;;;;;11.97;5.40;;;;;;;17.21;74.21;101010.28;126400;1086;104028;-75
2022/10/24 09:31:41;;;;;;;8.40;4.80;;;;;;;17.38;74.34;101020.30;126795;1087;104197;-75
2022/10/24 09:34:14;;;;;;;7.90;4.80;;;;;;;17.47;74.21;101023.09;126313;1086;104156;-74
2022/10/24 09:36:57;;;;;;;8.67;4.63;;;;;;;17.52;73.84;101023.17;126755;1089;102311;-75
2022/10/24 09:40:05;;;;;;;9.00;4.70;;;;;;;17.55;72.96;101021.45;126949;1086;104196;-75
2022/10/24 09:42:37;;;;;;;9.53;4.70;;;;;;;17.63;73.40;101012.72;126744;1089;104165;-74
2022/10/24 09:45:30;;;;;;;8.83;4.40;;;;;;;17.67;72.31;101011.88;126712;1086;102269;-76
2022/10/24 09:48:21;;;;;;;8.60;4.57;;;;;;;17.69;71.59;101007.50;127085;1086;104164;-76
2022/10/24 09:50:54;;;;;;;11.30;4.80;;;;;;;17.75;72.15;101011.13;127009;1086;102369;-76
2022/10/24 09:53:38;;;;;;;6.67;4.10;;;;;;;17.80;71.46;101008.54;126694;1086;104162;-75
2022/10/24 09:56:12;;;;;;;7.33;4.47;;;;;;;17.84;71.30;100998.84;126969;1085;104402;-75
2022/10/24 09:58:42;;;;;;;6.33;4.20;;;;;;;17.86;70.49;101008.62;127010;1086;102812;-75
2022/10/24 10:01:23;;;;;;;8.13;4.23;;;;;;;17.90;70.70;101004.27;126668;1090;104280;-75
2022/10/24 10:04:03;;;;;;;6.30;3.93;;;;;;;17.96;69.66;100999.94;126749;1089;102164;-73
2022/10/24 10:06:42;;;;;;;7.30;3.90;;;;;;;18.04;69.15;101001.81;126981;1086;103330;-73
2022/10/24 10:09:30;;;;;;;7.40;3.90;;;;;;;18.09;69.41;100998.35;126595;1086;104222;-76
2022/10/24 10:12:02;;;;;;;5.57;3.90;;;;;;;18.19;69.38;100995.81;127078;1086;102321;-74
2022/10/24 10:14:41;;;;;;;8.90;4.30;;;;;;;18.23;68.41;100985.25;126045;1089;103470;-75
2022/10/24 10:17:35;;;;;;;6.47;3.83;;;;;;;18.25;68.25;100979.95;126747;1086;103413;-75
2022/10/24 10:20:04;;;;;;;;;;;;;;;18.32;67.49;100974.73;126838;1086;104299;-75
2022/10/24 10:22:40;;;;;;;7.20;3.80;;;;;;;18.39;67.83;100977.45;126810;1086;104357;-76
2022/10/24 10:25:29;;;;;;;6.90;4.00;;;;;;;18.44;67.61;100975.73;126874;1086;102518;-75
2022/10/24 10:28:24;;;;;;;7.23;4.50;;;;;;;18.47;67.23;100971.33;126716;1089;104177;-75
2022/10/24 10:30:57;;;;;;;7.23;4.10;;;;;;;18.52;67.07;100962.53;127043;1086;102287;-76
2022/10/24 10:34:07;;;;;;;7.67;4.10;;;;;;;18.54;66.67;100960.77;127067;1086;104161;-77
2022/10/24 10:36:52;;;;;;;8.60;4.30;;;;;;;18.56;65.79;100953.70;127009;1086;104652;-76
2022/10/24 10:39:51;;;;;;;6.43;4.00;;;;;;;18.61;66.22;100952.88;127135;1085;102924;-77
2022/10/24 10:43:11;;;;;;;12.43;3.90;;;;;;;18.65;65.33;100953.79;127042;1086;112700;-74
2022/10/24 10:45:45;;;;;;;7.47;4.20;;;;;;;18.68;64.38;100941.44;126842;1086;104251;-77
2022/10/24 10:48:43;;;;;;;5.63;3.60;;;;;;;18.72;65.40;100939.69;127073;1086;102950;-76
2022/10/24 10:51:21;;;;;;;5.90;3.60;;;;;;;18.72;64.21;100936.16;127102;1086;104260;-76
2022/10/24 10:54:12;;;;;;;8.13;3.65;;;;;;;18.74;64.70;100931.73;127128;1086;104197;-76
2022/10/24 10:56:50;;;;;;;11.53;3.90;;;;;;;18.72;64.59;100925.52;126497;1086;104225;-74
2022/10/24 10:59:51;;;;;;;8.97;4.07;;;;;;;18.74;64.31;100918.44;126198;1087;103320;-73
2022/10/24 11:02:37;;;;;;;5.27;3.40;;;;;;;18.74;63.35;100914.00;126168;1086;104165;-75
2022/10/24 11:05:19;;;;;;;5.17;3.47;;;;;;;18.74;63.40;100915.78;125951;1086;102372;-74
2022/10/24 11:07:57;;;;;;;8.10;3.90;;;;;;;18.73;62.16;100925.53;126329;1086;102730;-73
2022/10/24 11:10:33;;;;;;;6.13;3.50;;;;;;;18.75;61.98;100920.23;126377;1086;104156;-74
2022/10/24 11:13:32;;;;;;;6.10;3.53;;;;;;;18.69;62.08;100913.08;126399;1086;103334;-75
2022/10/24 11:16:27;;;;;;;7.07;3.50;;;;;;;18.70;62.28;100909.56;126229;1086;102885;-75
2022/10/24 11:19:10;;;;;;;7.23;3.80;;;;;;;18.76;61.70;100916.67;126339;1086;104263;-75
2022/10/24 11:21:44;;;;;;;6.97;3.80;;;;;;;18.77;61.37;100918.47;126752;1086;104305;-75
2022/10/24 11:24:21;;;;;;;8.20;3.60;;;;;;;18.77;60.98;100910.49;126749;1086;104162;-75
2022/10/24 11:26:58;;;;;;;4.90;3.60;;;;;;;18.78;61.02;100917.60;126016;1086;102494;-75
2022/10/24 11:29:33;;;;;;;6.53;3.50;;;;;;;18.78;60.89;100910.51;126318;1086;104159;-75
2022/10/24 11:32:15;;;;;;;5.97;3.60;;;;;;;18.79;61.28;100906.06;125950;1089;102144;-75
2022/10/24 11:35:02;;;;;;;7.47;3.70;;;;;;;18.78;60.31;100906.97;126363;1086;102388;-76